Time;durP1;ratioP1;P1;durP2;ratioP2;P2;SDS_P1;SDS_P2;PMS_P1;PMS_P2;Temp;Humidity;BMP_temperature;BMP_pressure;BME280_temperature;BME280_humidity;BME280_pressure;Samples;Min_cycle;Max_cycle;Signal;HPM_P1;HPM_P2
2021/06/08 00:01:50;;;;;;;1.50;0.40;;;;;;;;;;5041864;28;20079;-57
2021/06/08 00:04:16;;;;;;;1.98;0.43;;;;;;;;;;5041879;28;20051;-56
2021/06/08 00:06:42;;;;;;;2.10;0.40;;;;;;;;;;5038982;28;20032;-55
2021/06/08 00:09:11;;;;;;;4.72;0.63;;;;;;;;;;5040051;28;20037;-58
2021/06/08 00:11:37;;;;;;;0.70;0.32;;;;;;;;;;5031343;28;20296;-55
2021/06/08 00:14:03;;;;;;;0.93;0.30;;;;;;;;;;5040418;28;20068;-56
2021/06/08 00:16:29;;;;;;;0.98;0.30;;;;;;;;;;5037031;28;20513;-56
2021/06/08 00:18:58;;;;;;;4.20;0.55;;;;;;;;;;5041578;28;20052;-58
2021/06/08 00:21:24;;;;;;;0.65;0.35;;;;;;;;;;5054895;28;20518;-57
2021/06/08 00:23:50;;;;;;;1.13;0.30;;;;;;;;;;5023972;28;20041;-57
2021/06/08 00:26:16;;;;;;;0.30;0.30;;;;;;;;;;5040399;28;20140;-56
2021/06/08 00:28:42;;;;;;;0.73;0.30;;;;;;;;;;5043563;28;20509;-57
2021/06/08 00:31:08;;;;;;;0.55;0.30;;;;;;;;;;5043541;28;20052;-55
2021/06/08 00:33:37;;;;;;;0.50;0.30;;;;;;;;;;5042914;28;20048;-56
2021/06/08 00:36:03;;;;;;;0.43;0.30;;;;;;;;;;5045897;28;20057;-57
2021/06/08 00:38:29;;;;;;;0.25;0.25;;;;;;;;;;5053903;28;20037;-53
2021/06/08 00:40:55;;;;;;;0.95;0.40;;;;;;;;;;5048666;28;20056;-54
2021/06/08 00:43:30;;;;;;;0.45;0.30;;;;;;;;;;5036042;28;20032;-54
2021/06/08 00:45:56;;;;;;;2.58;0.40;;;;;;;;;;5042727;28;20131;-56
2021/06/08 00:48:22;;;;;;;0.50;0.30;;;;;;;;;;5046730;28;20140;-55
2021/06/08 00:50:48;;;;;;;0.85;0.30;;;;;;;;;;5040420;28;20041;-55
2021/06/08 00:53:17;;;;;;;1.15;0.30;;;;;;;;;;5041274;28;20044;-54
2021/06/08 00:55:43;;;;;;;0.52;0.30;;;;;;;;;;5042631;28;20041;-57
2021/06/08 00:58:09;;;;;;;0.85;0.32;;;;;;;;;;5044304;28;20040;-56
2021/06/08 01:00:36;;;;;;;1.35;0.30;;;;;;;;;;5032167;28;20056;-56
2021/06/08 01:03:02;;;;;;;0.77;0.35;;;;;;;;;;5041024;28;20247;-55
2021/06/08 01:05:28;;;;;;;0.98;0.30;;;;;;;;;;5042868;28;20138;-55
2021/06/08 01:07:55;;;;;;;3.60;0.40;;;;;;;;;;5044582;28;20119;-55
2021/06/08 01:10:21;;;;;;;0.32;0.30;;;;;;;;;;5040859;28;20051;-55
2021/06/08 01:12:47;;;;;;;2.10;0.38;;;;;;;;;;5046073;28;20559;-56
2021/06/08 01:15:13;;;;;;;2.30;0.35;;;;;;;;;;5046689;28;20041;-55
2021/06/08 01:17:39;;;;;;;0.55;0.30;;;;;;;;;;5045686;28;20043;-58
2021/06/08 01:20:06;;;;;;;0.85;0.40;;;;;;;;;;5047321;28;20041;-56
2021/06/08 01:22:32;;;;;;;0.25;0.25;;;;;;;;;;5043701;28;20063;-57
2021/06/08 01:24:58;;;;;;;2.90;0.40;;;;;;;;;;5047708;28;20040;-55
2021/06/08 01:27:24;;;;;;;0.63;0.30;;;;;;;;;;5045887;28;20857;-55
2021/06/08 01:29:52;;;;;;;0.68;0.30;;;;;;;;;;5043217;28;20033;-55
2021/06/08 01:32:20;;;;;;;0.30;0.30;;;;;;;;;;5058056;28;20044;-57
2021/06/08 01:34:46;;;;;;;0.32;0.30;;;;;;;;;;5041514;28;20060;-58
2021/06/08 01:37:14;;;;;;;0.30;0.30;;;;;;;;;;5044313;28;20045;-56
2021/06/08 01:39:46;;;;;;;1.17;0.40;;;;;;;;;;5059043;28;20128;-55
2021/06/08 01:42:12;;;;;;;1.38;0.40;;;;;;;;;;5041964;28;21109;-55
2021/06/08 01:44:40;;;;;;;2.92;0.50;;;;;;;;;;5033523;28;20038;-56
2021/06/08 01:47:06;;;;;;;1.17;0.40;;;;;;;;;;5043083;28;20075;-56
2021/06/08 01:49:32;;;;;;;1.00;0.40;;;;;;;;;;5047092;28;20044;-56
2021/06/08 01:52:09;;;;;;;1.23;0.40;;;;;;;;;;5044935;28;20114;-55
2021/06/08 01:54:51;;;;;;;1.30;0.50;;;;;;;;;;5056527;28;20037;-55
2021/06/08 01:57:25;;;;;;;2.22;0.40;;;;;;;;;;5042038;28;20072;-54
2021/06/08 02:00:11;;;;;;;1.33;0.40;;;;;;;;;;5041829;28;20052;-55
2021/06/08 02:02:48;;;;;;;1.50;0.50;;;;;;;;;;5043958;28;20103;-54
2021/06/08 02:05:23;;;;;;;1.88;0.50;;;;;;;;;;5044709;28;20104;-55
2021/06/08 02:08:12;;;;;;;2.50;0.43;;;;;;;;;;5027158;28;20111;-57
2021/06/08 02:10:47;;;;;;;2.22;0.40;;;;;;;;;;5034868;28;20210;-56
2021/06/08 02:13:15;;;;;;;1.88;0.50;;;;;;;;;;5036167;28;21241;-55
2021/06/08 02:15:51;;;;;;;1.35;0.50;;;;;;;;;;5040345;28;20044;-56
2021/06/08 02:18:17;;;;;;;1.23;0.50;;;;;;;;;;5043699;28;20044;-58
2021/06/08 02:20:43;;;;;;;4.30;0.60;;;;;;;;;;5041427;28;20049;-55
2021/06/08 02:23:11;;;;;;;2.65;0.47;;;;;;;;;;5040693;28;20036;-57
2021/06/08 02:25:37;;;;;;;1.42;0.50;;;;;;;;;;5040072;28;21591;-55
2021/06/08 02:28:07;;;;;;;1.08;0.45;;;;;;;;;;5046581;28;20044;-52
2021/06/08 02:30:36;;;;;;;1.10;0.40;;;;;;;;;;5031198;28;20127;-54
2021/06/08 02:33:04;;;;;;;1.35;0.50;;;;;;;;;;5055300;28;20045;-58
2021/06/08 02:35:31;;;;;;;0.98;0.40;;;;;;;;;;5041037;28;20512;-55
2021/06/08 02:38:00;;;;;;;0.70;0.40;;;;;;;;;;5041314;28;20574;-56
2021/06/08 02:40:26;;;;;;;1.85;0.40;;;;;;;;;;5031277;28;20390;-58
2021/06/08 02:42:58;;;;;;;0.65;0.30;;;;;;;;;;5029048;28;20270;-56
2021/06/08 02:45:25;;;;;;;2.07;0.40;;;;;;;;;;5042245;28;20049;-56
2021/06/08 02:47:51;;;;;;;1.08;0.40;;;;;;;;;;5042809;28;20274;-53
2021/06/08 02:50:23;;;;;;;0.77;0.32;;;;;;;;;;5038077;28;20043;-57
2021/06/08 02:52:57;;;;;;;1.17;0.40;;;;;;;;;;5010005;28;20037;-56
2021/06/08 02:55:27;;;;;;;2.00;0.40;;;;;;;;;;5055382;28;20037;-56
2021/06/08 02:57:54;;;;;;;1.10;0.40;;;;;;;;;;5031733;28;20040;-55
2021/06/08 03:00:21;;;;;;;0.68;0.30;;;;;;;;;;5052776;28;20596;-56
2021/06/08 03:02:48;;;;;;;1.02;0.50;;;;;;;;;;5048013;28;20454;-56
2021/06/08 03:05:35;;;;;;;1.30;0.40;;;;;;;;;;5043143;28;20040;-56
2021/06/08 03:08:02;;;;;;;3.85;0.38;;;;;;;;;;5041433;28;20055;-57
2021/06/08 03:10:31;;;;;;;3.63;0.60;;;;;;;;;;5029169;28;20545;-56
2021/06/08 03:13:01;;;;;;;0.70;0.30;;;;;;;;;;5041904;28;20127;-53
2021/06/08 03:15:27;;;;;;;0.95;0.40;;;;;;;;;;5043320;28;20128;-56
2021/06/08 03:17:53;;;;;;;0.82;0.40;;;;;;;;;;5044282;28;20139;-55
2021/06/08 03:20:25;;;;;;;1.35;0.50;;;;;;;;;;5020272;28;20944;-56
2021/06/08 03:22:56;;;;;;;1.40;0.50;;;;;;;;;;5042590;28;20049;-54
2021/06/08 03:25:22;;;;;;;1.58;0.40;;;;;;;;;;5040274;28;20095;-55
2021/06/08 03:27:49;;;;;;;1.35;0.40;;;;;;;;;;5043003;28;20044;-57
2021/06/08 03:30:15;;;;;;;3.30;0.50;;;;;;;;;;5048112;28;20064;-55
2021/06/08 03:32:46;;;;;;;2.28;0.43;;;;;;;;;;5030411;28;20731;-56
2021/06/08 03:35:12;;;;;;;4.40;0.50;;;;;;;;;;5042350;28;20102;-57
2021/06/08 03:37:40;;;;;;;1.00;0.40;;;;;;;;;;5040610;28;20803;-55
2021/06/08 03:40:06;;;;;;;0.93;0.40;;;;;;;;;;5035607;28;20489;-54
2021/06/08 03:42:32;;;;;;;1.05;0.40;;;;;;;;;;5042090;28;20205;-53
2021/06/08 03:45:01;;;;;;;2.20;0.70;;;;;;;;;;5038953;28;20110;-54
2021/06/08 03:47:27;;;;;;;3.80;0.40;;;;;;;;;;5040275;28;21137;-54
2021/06/08 03:49:54;;;;;;;1.30;0.40;;;;;;;;;;5039866;28;20033;-55
2021/06/08 03:52:20;;;;;;;3.80;0.40;;;;;;;;;;5039458;28;20222;-56
2021/06/08 03:54:46;;;;;;;1.95;0.40;;;;;;;;;;5040233;28;20037;-56
2021/06/08 03:57:13;;;;;;;2.85;0.60;;;;;;;;;;5039749;28;20544;-56
2021/06/08 03:59:39;;;;;;;1.65;0.50;;;;;;;;;;5039412;28;20049;-53
2021/06/08 04:02:05;;;;;;;1.55;0.40;;;;;;;;;;5039320;28;20072;-56
2021/06/08 04:04:31;;;;;;;1.50;0.50;;;;;;;;;;5040886;28;20654;-55
2021/06/08 04:06:57;;;;;;;1.45;0.47;;;;;;;;;;5039474;28;20086;-54
2021/06/08 04:09:23;;;;;;;1.10;0.40;;;;;;;;;;5038700;28;20110;-56
2021/06/08 04:11:51;;;;;;;3.55;0.50;;;;;;;;;;5038457;28;20044;-54
2021/06/08 04:14:18;;;;;;;3.05;0.50;;;;;;;;;;5041170;28;20039;-56
2021/06/08 04:16:44;;;;;;;0.85;0.40;;;;;;;;;;5042159;28;20119;-56
2021/06/08 04:19:13;;;;;;;2.75;0.50;;;;;;;;;;5040614;28;20036;-55
2021/06/08 04:21:41;;;;;;;2.05;0.60;;;;;;;;;;5042167;28;20056;-56
2021/06/08 04:24:07;;;;;;;1.63;0.50;;;;;;;;;;5041548;28;20417;-53
2021/06/08 04:26:33;;;;;;;1.35;0.47;;;;;;;;;;5042182;28;20044;-53
2021/06/08 04:28:59;;;;;;;3.75;0.40;;;;;;;;;;5041808;28;20166;-54
2021/06/08 04:31:25;;;;;;;1.70;0.47;;;;;;;;;;5039809;28;20055;-54
2021/06/08 04:33:52;;;;;;;0.70;0.40;;;;;;;;;;5040980;28;20163;-54
2021/06/08 04:36:18;;;;;;;4.18;0.50;;;;;;;;;;5041184;28;20116;-55
2021/06/08 04:38:44;;;;;;;1.63;0.50;;;;;;;;;;5039498;28;20041;-51
2021/06/08 04:41:11;;;;;;;3.58;0.60;;;;;;;;;;5041697;28;20092;-54
2021/06/08 04:43:37;;;;;;;2.35;0.55;;;;;;;;;;5041327;28;20095;-54
2021/06/08 04:46:06;;;;;;;2.53;0.60;;;;;;;;;;5040062;28;20498;-55
2021/06/08 04:48:33;;;;;;;1.00;0.40;;;;;;;;;;5039122;28;20037;-55
2021/06/08 04:50:59;;;;;;;1.70;0.50;;;;;;;;;;5041016;28;20679;-53
2021/06/08 04:53:25;;;;;;;2.10;0.50;;;;;;;;;;5039670;28;20084;-53
2021/06/08 04:55:52;;;;;;;2.40;0.40;;;;;;;;;;5040726;28;20143;-54
2021/06/08 04:58:18;;;;;;;1.05;0.40;;;;;;;;;;5042360;28;20048;-55
2021/06/08 05:00:44;;;;;;;1.15;0.50;;;;;;;;;;5040975;28;20064;-55
2021/06/08 05:03:18;;;;;;;1.60;0.40;;;;;;;;;;5042897;28;20887;-54
2021/06/08 05:05:55;;;;;;;1.15;0.40;;;;;;;;;;5040259;28;20082;-55
2021/06/08 05:08:21;;;;;;;2.28;0.40;;;;;;;;;;5041157;28;20440;-54
2021/06/08 05:10:51;;;;;;;3.17;0.60;;;;;;;;;;5040056;28;20051;-53
2021/06/08 05:13:17;;;;;;;2.75;0.50;;;;;;;;;;5040550;28;20185;-51
2021/06/08 05:15:43;;;;;;;1.17;0.40;;;;;;;;;;5040163;28;20106;-54
2021/06/08 05:18:11;;;;;;;1.92;0.50;;;;;;;;;;5041203;28;20572;-55
2021/06/08 05:20:39;;;;;;;1.75;0.50;;;;;;;;;;5041954;28;20044;-53
2021/06/08 05:23:06;;;;;;;1.98;0.60;;;;;;;;;;5040725;28;20037;-52
2021/06/08 05:25:32;;;;;;;4.63;0.50;;;;;;;;;;5040549;28;20087;-55
2021/06/08 05:27:58;;;;;;;1.50;0.40;;;;;;;;;;5040395;28;20047;-54
2021/06/08 05:30:24;;;;;;;2.00;0.50;;;;;;;;;;5039758;28;20045;-54
2021/06/08 05:32:50;;;;;;;1.50;0.50;;;;;;;;;;5042730;28;20090;-54
2021/06/08 05:35:24;;;;;;;2.63;0.55;;;;;;;;;;5040554;28;20045;-53
2021/06/08 05:37:50;;;;;;;1.77;0.52;;;;;;;;;;5040803;28;20083;-52
2021/06/08 05:40:15;;;;;;;2.30;0.50;;;;;;;;;;5039489;28;20448;-55
2021/06/08 05:42:41;;;;;;;1.33;0.50;;;;;;;;;;5042009;28;20048;-51
2021/06/08 05:45:07;;;;;;;0.90;0.40;;;;;;;;;;5041150;28;20670;-53
2021/06/08 05:47:33;;;;;;;1.10;0.40;;;;;;;;;;5039536;28;20083;-55
2021/06/08 05:49:59;;;;;;;1.58;0.50;;;;;;;;;;5043912;28;20163;-55
2021/06/08 05:52:26;;;;;;;1.88;0.50;;;;;;;;;;5045870;28;20040;-54
2021/06/08 05:54:53;;;;;;;3.35;0.57;;;;;;;;;;5046312;28;20137;-55
2021/06/08 05:57:19;;;;;;;1.58;0.50;;;;;;;;;;5046152;28;20036;-54
2021/06/08 05:59:45;;;;;;;5.53;0.70;;;;;;;;;;5048374;28;20037;-52
2021/06/08 06:02:13;;;;;;;4.32;0.50;;;;;;;;;;5047581;28;20052;-55
2021/06/08 06:04:38;;;;;;;1.98;0.57;;;;;;;;;;5045905;28;20051;-52
2021/06/08 06:07:04;;;;;;;1.58;0.55;;;;;;;;;;5047661;28;20037;-54
2021/06/08 06:09:32;;;;;;;2.33;0.60;;;;;;;;;;5045259;28;20037;-53
2021/06/08 06:11:58;;;;;;;1.92;0.55;;;;;;;;;;5041589;28;20049;-53
2021/06/08 06:14:25;;;;;;;1.70;0.60;;;;;;;;;;5042662;28;20703;-51
2021/06/08 06:16:53;;;;;;;2.65;0.50;;;;;;;;;;5042958;28;20041;-54
2021/06/08 06:19:25;;;;;;;2.17;0.57;;;;;;;;;;5042760;28;20132;-53
2021/06/08 06:21:55;;;;;;;6.15;0.82;;;;;;;;;;5043894;28;20408;-53
2021/06/08 06:24:21;;;;;;;2.95;0.60;;;;;;;;;;5042332;28;20037;-54
2021/06/08 06:26:48;;;;;;;1.83;0.60;;;;;;;;;;5046078;28;20433;-53
2021/06/08 06:29:14;;;;;;;2.47;0.60;;;;;;;;;;5060703;28;20037;-53
2021/06/08 06:31:47;;;;;;;2.20;0.60;;;;;;;;;;5046140;28;20123;-54
2021/06/08 06:34:14;;;;;;;1.63;0.50;;;;;;;;;;5044397;28;20044;-53
2021/06/08 06:36:40;;;;;;;2.22;0.60;;;;;;;;;;5043145;28;20064;-53
2021/06/08 06:39:11;;;;;;;2.20;0.70;;;;;;;;;;5043178;28;20045;-54
2021/06/08 06:41:41;;;;;;;2.15;0.55;;;;;;;;;;5043625;28;20045;-54
2021/06/08 06:44:07;;;;;;;2.05;0.60;;;;;;;;;;5042429;28;20040;-53
2021/06/08 06:46:33;;;;;;;2.47;0.60;;;;;;;;;;5043406;28;20049;-53
2021/06/08 06:48:59;;;;;;;1.35;0.40;;;;;;;;;;5059596;28;20708;-52
2021/06/08 06:51:25;;;;;;;2.05;0.60;;;;;;;;;;5043131;28;20437;-54
2021/06/08 06:53:55;;;;;;;2.10;0.65;;;;;;;;;;5045938;28;20041;-51
2021/06/08 06:56:22;;;;;;;1.48;0.40;;;;;;;;;;5042269;28;20090;-53
2021/06/08 06:58:48;;;;;;;1.40;0.50;;;;;;;;;;5044934;28;20044;-53
2021/06/08 07:01:14;;;;;;;1.52;0.50;;;;;;;;;;5044758;28;20591;-52
2021/06/08 07:03:40;;;;;;;4.43;0.50;;;;;;;;;;5041652;28;20053;-52
2021/06/08 07:06:08;;;;;;;1.17;0.40;;;;;;;;;;5044265;28;21965;-55
2021/06/08 07:08:34;;;;;;;1.77;0.50;;;;;;;;;;5040073;28;20447;-53
2021/06/08 07:10:59;;;;;;;1.58;0.40;;;;;;;;;;5041967;28;20057;-55
2021/06/08 07:13:26;;;;;;;1.75;0.50;;;;;;;;;;5040743;28;20051;-55
2021/06/08 07:15:54;;;;;;;1.88;0.50;;;;;;;;;;5044187;28;20171;-53
2021/06/08 07:18:20;;;;;;;2.55;0.50;;;;;;;;;;5043054;28;20035;-54
2021/06/08 07:20:47;;;;;;;1.38;0.50;;;;;;;;;;5042568;28;20064;-54
2021/06/08 07:23:16;;;;;;;2.97;0.57;;;;;;;;;;5042371;28;20184;-52
2021/06/08 07:25:42;;;;;;;1.92;0.50;;;;;;;;;;5042124;28;20045;-55
2021/06/08 07:28:09;;;;;;;1.48;0.50;;;;;;;;;;5043192;28;20049;-54
2021/06/08 07:30:36;;;;;;;1.42;0.43;;;;;;;;;;5041853;28;20037;-53
2021/06/08 07:33:05;;;;;;;1.88;0.50;;;;;;;;;;5043843;28;20045;-55
2021/06/08 07:35:40;;;;;;;1.55;0.45;;;;;;;;;;5041733;28;20103;-55
2021/06/08 07:38:09;;;;;;;0.68;0.40;;;;;;;;;;5044005;28;20045;-55
2021/06/08 07:40:40;;;;;;;2.63;0.50;;;;;;;;;;5042773;28;20041;-55
2021/06/08 07:43:07;;;;;;;1.63;0.50;;;;;;;;;;5042277;28;20072;-55
2021/06/08 07:45:50;;;;;;;2.10;0.50;;;;;;;;;;5040312;28;20161;-55
2021/06/08 07:48:24;;;;;;;1.98;0.50;;;;;;;;;;5042457;28;20037;-56
2021/06/08 07:50:51;;;;;;;1.45;0.40;;;;;;;;;;5041900;28;20070;-55
2021/06/08 07:53:21;;;;;;;1.90;0.50;;;;;;;;;;5042309;28;20047;-56
2021/06/08 07:55:49;;;;;;;1.98;0.50;;;;;;;;;;5042579;28;20029;-55
2021/06/08 07:58:22;;;;;;;1.30;0.40;;;;;;;;;;5043107;28;20041;-55
2021/06/08 08:00:48;;;;;;;1.77;0.40;;;;;;;;;;5043044;28;20045;-53
2021/06/08 08:03:28;;;;;;;0.73;0.40;;;;;;;;;;5043260;28;20037;-55
2021/06/08 08:06:02;;;;;;;2.78;0.50;;;;;;;;;;5042095;28;20086;-53
2021/06/08 08:08:28;;;;;;;1.45;0.47;;;;;;;;;;5047016;28;20531;-55
2021/06/08 08:10:54;;;;;;;1.52;0.50;;;;;;;;;;5050156;28;20074;-55
2021/06/08 08:13:24;;;;;;;1.40;0.50;;;;;;;;;;5051297;28;20048;-55
2021/06/08 08:15:51;;;;;;;4.82;0.50;;;;;;;;;;5047992;28;20041;-52
2021/06/08 08:18:18;;;;;;;1.50;0.50;;;;;;;;;;5044648;28;20075;-55
2021/06/08 08:20:46;;;;;;;0.88;0.40;;;;;;;;;;5043346;28;20057;-53
2021/06/08 08:23:12;;;;;;;2.97;0.52;;;;;;;;;;5040842;28;20131;-55
2021/06/08 08:25:38;;;;;;;1.23;0.50;;;;;;;;;;5039640;28;20037;-53
2021/06/08 08:28:05;;;;;;;1.70;0.40;;;;;;;;;;5041255;28;20489;-52
2021/06/08 08:30:31;;;;;;;1.75;0.50;;;;;;;;;;5041390;28;20043;-51
2021/06/08 08:32:56;;;;;;;1.48;0.50;;;;;;;;;;5042872;28;20036;-53
2021/06/08 08:35:22;;;;;;;1.50;0.50;;;;;;;;;;5040719;28;20144;-54
2021/06/08 08:37:48;;;;;;;1.60;0.50;;;;;;;;;;5041948;28;20040;-53
2021/06/08 08:40:15;;;;;;;2.20;0.60;;;;;;;;;;5041846;28;20087;-51
2021/06/08 08:42:41;;;;;;;1.95;0.50;;;;;;;;;;5040788;28;21960;-54
2021/06/08 08:45:07;;;;;;;3.55;0.60;;;;;;;;;;5039995;28;20231;-54
2021/06/08 08:47:34;;;;;;;1.85;0.50;;;;;;;;;;5040437;28;20124;-54
2021/06/08 08:50:00;;;;;;;1.65;0.60;;;;;;;;;;5040713;28;20228;-54
2021/06/08 08:52:25;;;;;;;2.03;0.60;;;;;;;;;;5041459;28;20514;-55
2021/06/08 08:54:51;;;;;;;2.42;0.57;;;;;;;;;;5040337;28;20078;-53
2021/06/08 08:57:18;;;;;;;1.73;0.60;;;;;;;;;;5041411;28;20453;-51
2021/06/08 08:59:44;;;;;;;1.88;0.60;;;;;;;;;;5042042;28;20041;-55
2021/06/08 09:02:10;;;;;;;2.15;0.70;;;;;;;;;;5042521;28;20056;-54
2021/06/08 09:10:04;;;;;;;2.55;0.52;;;;;;;;;;4972026;23;20044;-55
2021/06/08 09:12:30;;;;;;;3.05;0.70;;;;;;;;;;4981063;28;20052;-58
2021/06/08 09:14:56;;;;;;;2.38;0.60;;;;;;;;;;4990295;28;20034;-57
2021/06/08 09:17:21;;;;;;;2.30;0.60;;;;;;;;;;4990223;28;20041;-53
2021/06/08 09:19:47;;;;;;;1.92;0.55;;;;;;;;;;4994614;28;20041;-57
2021/06/08 09:22:14;;;;;;;2.20;0.60;;;;;;;;;;4992677;28;20041;-59
2021/06/08 09:24:41;;;;;;;2.65;0.60;;;;;;;;;;4967382;28;20037;-57
2021/06/08 09:27:08;;;;;;;1.80;0.60;;;;;;;;;;4995866;28;20363;-56
2021/06/08 09:29:33;;;;;;;2.03;0.60;;;;;;;;;;4995170;28;20033;-58
2021/06/08 09:32:19;;;;;;;1.77;0.50;;;;;;;;;;4977202;28;20036;-56
2021/06/08 09:34:45;;;;;;;1.75;0.60;;;;;;;;;;5009631;28;21147;-60
2021/06/08 09:37:11;;;;;;;2.25;0.60;;;;;;;;;;5011824;28;20033;-58
2021/06/08 09:39:46;;;;;;;2.10;0.50;;;;;;;;;;4993737;28;20160;-58
2021/06/08 09:42:20;;;;;;;2.20;0.70;;;;;;;;;;4981407;28;20049;-58
2021/06/08 09:44:45;;;;;;;;;;;;;;;;;;4993767;28;20900;-57
2021/06/08 09:47:24;;;;;;;2.42;0.60;;;;;;;;;;5012995;28;20023;-55
2021/06/08 09:49:50;;;;;;;3.45;0.70;;;;;;;;;;5013028;28;20140;-59
2021/06/08 09:52:18;;;;;;;2.15;0.65;;;;;;;;;;5012800;28;20103;-58
2021/06/08 09:54:44;;;;;;;2.33;0.60;;;;;;;;;;4996333;28;20033;-57
2021/06/08 09:57:26;;;;;;;2.58;0.70;;;;;;;;;;5022599;28;20808;-57
2021/06/08 10:00:00;;;;;;;4.15;0.65;;;;;;;;;;5002347;28;20440;-59
2021/06/08 10:02:28;;;;;;;2.13;0.63;;;;;;;;;;5001831;28;20053;-58
2021/06/08 10:04:54;;;;;;;2.45;0.60;;;;;;;;;;5020720;28;20091;-57
2021/06/08 10:07:40;;;;;;;2.22;0.60;;;;;;;;;;5021579;28;20333;-58
2021/06/08 10:10:30;;;;;;;4.88;0.70;;;;;;;;;;4945535;28;20055;-58
2021/06/08 10:13:03;;;;;;;1.50;0.50;;;;;;;;;;4947372;28;20122;-55
2021/06/08 10:15:30;;;;;;;3.08;0.73;;;;;;;;;;4945205;28;20652;-57
2021/06/08 10:18:07;;;;;;;1.83;0.63;;;;;;;;;;4946421;28;20035;-56
2021/06/08 10:20:34;;;;;;;1.77;0.65;;;;;;;;;;4945562;28;20783;-60
2021/06/08 10:23:03;;;;;;;2.17;0.60;;;;;;;;;;4946231;28;20062;-58
2021/06/08 10:25:29;;;;;;;4.18;0.70;;;;;;;;;;4944263;28;20093;-58
2021/06/08 10:27:56;;;;;;;2.85;0.60;;;;;;;;;;4945226;28;20031;-58
2021/06/08 10:30:22;;;;;;;2.50;0.77;;;;;;;;;;4943796;28;20068;-58
2021/06/08 10:32:48;;;;;;;2.03;0.60;;;;;;;;;;4928397;28;20147;-57
2021/06/08 10:35:14;;;;;;;2.30;0.85;;;;;;;;;;4945623;28;20191;-60
2021/06/08 10:37:40;;;;;;;2.28;0.80;;;;;;;;;;4946465;28;20047;-56
2021/06/08 10:40:06;;;;;;;3.15;0.80;;;;;;;;;;4948019;28;20446;-56
2021/06/08 10:42:32;;;;;;;3.13;0.80;;;;;;;;;;4947140;28;20072;-58
2021/06/08 10:45:01;;;;;;;4.25;0.80;;;;;;;;;;4946904;28;20158;-56
2021/06/08 10:49:59;;;;;;;3.70;0.90;;;;;;;;;;5002085;28;20037;-60
2021/06/08 10:52:27;;;;;;;3.50;1.05;;;;;;;;;;5002288;28;20132;-57
2021/06/08 10:54:54;;;;;;;4.07;1.00;;;;;;;;;;5002727;28;20111;-57
2021/06/08 10:57:20;;;;;;;3.92;0.80;;;;;;;;;;4998248;28;20053;-57
2021/06/08 10:59:47;;;;;;;3.72;0.90;;;;;;;;;;5001669;28;20133;-57
2021/06/08 11:02:33;;;;;;;4.28;1.10;;;;;;;;;;5002656;28;20075;-57
2021/06/08 11:04:59;;;;;;;4.45;0.90;;;;;;;;;;5000211;28;20157;-57
2021/06/08 11:07:47;;;;;;;3.25;0.90;;;;;;;;;;5007070;28;20037;-56
2021/06/08 11:10:25;;;;;;;2.95;1.00;;;;;;;;;;5015211;28;20052;-58
2021/06/08 11:13:09;;;;;;;2.30;0.80;;;;;;;;;;5020614;28;20107;-58
2021/06/08 11:15:37;;;;;;;3.05;0.90;;;;;;;;;;5020638;28;20059;-56
2021/06/08 11:18:34;;;;;;;6.35;0.90;;;;;;;;;;5021764;28;20034;-59
2021/06/08 11:21:03;;;;;;;3.05;1.10;;;;;;;;;;4963730;28;20049;-58
2021/06/08 11:23:33;;;;;;;3.45;1.17;;;;;;;;;;5020804;28;20034;-57
2021/06/08 11:25:59;;;;;;;4.45;1.00;;;;;;;;;;5020176;28;20044;-57
2021/06/08 11:28:45;;;;;;;4.88;1.13;;;;;;;;;;5019733;28;20041;-58
2021/06/08 11:31:12;;;;;;;2.63;1.00;;;;;;;;;;5021711;28;20034;-58
2021/06/08 11:33:39;;;;;;;3.10;1.25;;;;;;;;;;5020310;28;20068;-57
2021/06/08 11:36:16;;;;;;;3.17;1.10;;;;;;;;;;5020117;28;20199;-58
2021/06/08 11:38:42;;;;;;;2.85;1.00;;;;;;;;;;5020448;28;20120;-56
2021/06/08 11:41:09;;;;;;;2.58;0.90;;;;;;;;;;5020346;28;20530;-57
2021/06/08 11:43:35;;;;;;;2.95;1.00;;;;;;;;;;5022252;28;20045;-55
2021/06/08 11:46:03;;;;;;;4.30;1.75;;;;;;;;;;5020556;28;20048;-57
2021/06/08 11:48:34;;;;;;;2.97;1.08;;;;;;;;;;5019384;28;20057;-57
2021/06/08 11:51:00;;;;;;;4.68;1.10;;;;;;;;;;5021309;28;20448;-57
2021/06/08 11:53:26;;;;;;;4.60;0.95;;;;;;;;;;5020809;28;20124;-57
2021/06/08 11:56:05;;;;;;;2.80;1.10;;;;;;;;;;5020378;28;20590;-57
2021/06/08 11:58:32;;;;;;;6.85;1.10;;;;;;;;;;5020276;28;20038;-58
2021/06/08 12:00:58;;;;;;;3.13;1.00;;;;;;;;;;5020794;28;20055;-56
2021/06/08 12:03:24;;;;;;;3.17;0.90;;;;;;;;;;5016563;28;20111;-57
2021/06/08 12:05:50;;;;;;;3.20;1.20;;;;;;;;;;5020336;28;21468;-57
2021/06/08 12:08:22;;;;;;;4.78;1.08;;;;;;;;;;5020056;28;20037;-58
2021/06/08 12:10:49;;;;;;;2.75;1.00;;;;;;;;;;5018329;28;20390;-56
2021/06/08 12:13:19;;;;;;;2.78;0.98;;;;;;;;;;5022104;28;20133;-57
2021/06/08 12:15:51;;;;;;;3.17;1.23;;;;;;;;;;5020208;28;20046;-56
2021/06/08 12:18:23;;;;;;;2.83;0.98;;;;;;;;;;5020447;28;20026;-57
2021/06/08 12:20:49;;;;;;;2.90;1.20;;;;;;;;;;5020393;28;20062;-58
2021/06/08 12:23:27;;;;;;;5.82;2.55;;;;;;;;;;4988108;28;20794;-64
2021/06/08 12:25:53;;;;;;;3.78;1.50;;;;;;;;;;5016926;28;20083;-63
2021/06/08 12:28:19;;;;;;;3.67;1.20;;;;;;;;;;5019517;28;20049;-63
2021/06/08 12:30:44;;;;;;;3.15;1.15;;;;;;;;;;5022049;28;20026;-63
2021/06/08 12:33:11;;;;;;;3.42;1.30;;;;;;;;;;5019102;28;20872;-63
2021/06/08 12:35:38;;;;;;;4.45;1.10;;;;;;;;;;5017863;28;20048;-62
2021/06/08 12:38:08;;;;;;;3.70;1.10;;;;;;;;;;5020149;28;20048;-63
2021/06/08 12:40:34;;;;;;;4.10;1.30;;;;;;;;;;5020393;28;20076;-63
2021/06/08 12:43:00;;;;;;;4.78;1.23;;;;;;;;;;5020703;28;20558;-63
2021/06/08 12:45:26;;;;;;;3.35;1.23;;;;;;;;;;5021793;28;20045;-61
2021/06/08 12:47:52;;;;;;;3.35;1.25;;;;;;;;;;5020798;28;20130;-62
2021/06/08 12:50:27;;;;;;;7.75;2.70;;;;;;;;;;5002627;28;20374;-60
2021/06/08 12:52:59;;;;;;;3.70;1.35;;;;;;;;;;5021316;28;20077;-58
2021/06/08 12:55:29;;;;;;;5.83;1.70;;;;;;;;;;5018155;28;20038;-58
2021/06/08 12:57:58;;;;;;;4.78;1.60;;;;;;;;;;5012926;28;20029;-56
2021/06/08 13:00:25;;;;;;;3.75;1.40;;;;;;;;;;5017567;28;20052;-58
2021/06/08 13:02:51;;;;;;;6.18;1.50;;;;;;;;;;5021152;28;20163;-58
2021/06/08 13:05:20;;;;;;;3.30;1.30;;;;;;;;;;5023861;28;20339;-58
2021/06/08 13:07:48;;;;;;;3.63;1.30;;;;;;;;;;5022761;28;20033;-58
2021/06/08 13:10:20;;;;;;;3.60;1.33;;;;;;;;;;5023901;28;20055;-58
2021/06/08 13:12:46;;;;;;;5.40;1.30;;;;;;;;;;5005667;28;20046;-58
2021/06/08 13:15:14;;;;;;;6.35;1.63;;;;;;;;;;5022386;28;20041;-58
2021/06/08 13:17:40;;;;;;;3.10;1.40;;;;;;;;;;5022517;28;20049;-59
2021/06/08 13:20:18;;;;;;;6.97;1.42;;;;;;;;;;5023363;28;20491;-60
2021/06/08 13:22:44;;;;;;;5.15;1.60;;;;;;;;;;5023119;28;20041;-63
2021/06/08 13:25:11;;;;;;;4.32;1.55;;;;;;;;;;5023858;28;20095;-61
2021/06/08 13:27:40;;;;;;;4.93;1.30;;;;;;;;;;5021829;28;20056;-61
2021/06/08 13:30:14;;;;;;;4.40;1.80;;;;;;;;;;5023868;28;20037;-62
2021/06/08 13:32:40;;;;;;;3.30;1.40;;;;;;;;;;5003551;28;20067;-62
2021/06/08 13:35:12;;;;;;;4.93;1.48;;;;;;;;;;5024068;28;20037;-59
2021/06/08 13:37:39;;;;;;;6.78;1.77;;;;;;;;;;5020690;28;20103;-61
2021/06/08 13:40:13;;;;;;;3.17;1.30;;;;;;;;;;5018705;28;20048;-59
2021/06/08 13:42:38;;;;;;;;;;;;;;;;;;5020740;28;20049;-58
2021/06/08 13:45:07;;;;;;;3.80;1.38;;;;;;;;;;5021919;28;20203;-59
2021/06/08 13:47:38;;;;;;;3.42;1.30;;;;;;;;;;5021841;28;20048;-58
2021/06/08 13:50:23;;;;;;;4.30;1.38;;;;;;;;;;5020689;28;20022;-58
2021/06/08 13:53:04;;;;;;;4.63;1.60;;;;;;;;;;4999018;28;20044;-58
2021/06/08 13:55:45;;;;;;;5.32;1.40;;;;;;;;;;5014062;28;20469;-59
2021/06/08 14:01:09;;;;;;;3.92;1.52;;;;;;;;;;5014364;28;20273;-58
2021/06/08 14:03:35;;;;;;;8.88;1.40;;;;;;;;;;5014151;28;20604;-59
2021/06/08 14:06:10;;;;;;;8.48;2.03;;;;;;;;;;5015301;28;20073;-59
2021/06/08 14:08:36;;;;;;;4.40;1.55;;;;;;;;;;5013554;28;20347;-58
2021/06/08 14:11:04;;;;;;;4.45;1.27;;;;;;;;;;5013586;28;20053;-58
2021/06/08 14:13:33;;;;;;;3.25;1.40;;;;;;;;;;5013369;28;20037;-58
2021/06/08 14:15:59;;;;;;;10.50;1.48;;;;;;;;;;5015605;28;20132;-58
2021/06/08 14:18:24;;;;;;;4.13;1.60;;;;;;;;;;5013801;28;20147;-59
2021/06/08 14:20:50;;;;;;;4.50;1.60;;;;;;;;;;5014708;28;20096;-58
2021/06/08 14:23:16;;;;;;;4.00;1.40;;;;;;;;;;5013207;28;20064;-59
2021/06/08 14:25:42;;;;;;;4.53;1.42;;;;;;;;;;5013715;28;20380;-60
2021/06/08 14:28:08;;;;;;;3.97;1.65;;;;;;;;;;4996539;28;20124;-58
2021/06/08 14:30:34;;;;;;;3.97;1.40;;;;;;;;;;5013544;28;20524;-59
2021/06/08 14:33:00;;;;;;;4.50;1.42;;;;;;;;;;5014066;28;20045;-59
2021/06/08 14:35:25;;;;;;;3.00;1.40;;;;;;;;;;5014013;28;20453;-59
2021/06/08 14:37:51;;;;;;;4.53;1.98;;;;;;;;;;4996807;28;20038;-58
2021/06/08 14:40:18;;;;;;;4.53;1.77;;;;;;;;;;5014057;28;20036;-57
2021/06/08 14:42:44;;;;;;;3.15;1.40;;;;;;;;;;5013474;28;20080;-59
2021/06/08 14:45:10;;;;;;;3.53;1.50;;;;;;;;;;5015097;28;20041;-58
2021/06/08 14:47:36;;;;;;;3.72;1.67;;;;;;;;;;5014813;28;20072;-57
2021/06/08 14:50:03;;;;;;;4.20;1.63;;;;;;;;;;5015605;28;20080;-59
2021/06/08 14:52:31;;;;;;;6.93;1.67;;;;;;;;;;5013265;28;20183;-58
2021/06/08 14:54:58;;;;;;;4.55;1.75;;;;;;;;;;5013566;28;20041;-60
2021/06/08 14:57:24;;;;;;;3.92;1.60;;;;;;;;;;5015115;28;20140;-58
2021/06/08 14:59:50;;;;;;;7.65;1.80;;;;;;;;;;5014147;28;20375;-57
2021/06/08 15:02:18;;;;;;;6.10;1.50;;;;;;;;;;5016248;28;20461;-59